Time;durP1;ratioP1;P1;durP2;ratioP2;P2;SDS_P1;SDS_P2;PMS_P1;PMS_P2;Temp;Humidity;BMP_temperature;BMP_pressure;BME280_temperature;BME280_humidity;BME280_pressure;Samples;Min_cycle;Max_cycle;Signal;HPM_P1;HPM_P2
2022/08/19 00:00:50;;;;;;;21.45;19.35;;;;;;;17.50;97.72;101265.06;5046747;28;20033;-81
2022/08/19 00:03:15;;;;;;;22.52;20.63;;;;;;;17.41;98.21;101261.47;5047012;28;20047;-80
2022/08/19 00:05:41;;;;;;;22.20;20.23;;;;;;;17.41;98.42;101258.81;5046127;28;20775;-80
2022/08/19 00:08:07;;;;;;;23.15;20.85;;;;;;;17.36;98.21;101253.09;5046013;28;20036;-80
2022/08/19 00:10:33;;;;;;;22.10;20.15;;;;;;;17.35;98.30;101254.09;5049243;28;20589;-81
2022/08/19 00:12:59;;;;;;;22.45;20.42;;;;;;;17.37;97.36;101260.09;5048166;28;20475;-81
2022/08/19 00:15:24;;;;;;;23.13;20.90;;;;;;;17.33;98.36;101260.53;5048387;28;20032;-81
2022/08/19 00:17:50;;;;;;;24.92;22.73;;;;;;;17.27;98.61;101255.81;5049265;28;20056;-81
2022/08/19 00:20:19;;;;;;;24.77;22.58;;;;;;;17.23;98.61;101257.94;5047796;28;20830;-81
2022/08/19 00:22:47;;;;;;;24.95;22.75;;;;;;;17.22;98.39;101250.94;5047939;28;20036;-81
2022/08/19 00:25:12;;;;;;;25.50;23.15;;;;;;;17.23;98.69;101250.78;5047233;28;20568;-81
2022/08/19 00:27:37;;;;;;;24.23;22.17;;;;;;;17.17;98.75;101256.66;5047528;28;20025;-81
2022/08/19 00:30:05;;;;;;;24.23;22.15;;;;;;;17.10;98.63;101252.91;5047485;28;20020;-81
2022/08/19 00:32:31;;;;;;;24.50;22.23;;;;;;;17.08;99.37;101256.69;5049042;28;20029;-81
2022/08/19 00:34:57;;;;;;;24.42;22.23;;;;;;;17.12;99.21;101252.75;5048012;28;20025;-81
2022/08/19 00:37:25;;;;;;;25.15;22.25;;;;;;;17.07;99.18;101260.34;5047914;28;20060;-80
2022/08/19 00:39:51;;;;;;;24.77;22.65;;;;;;;17.08;99.32;101262.03;5047835;28;20033;-80
2022/08/19 00:42:17;;;;;;;24.20;21.90;;;;;;;17.03;98.81;101264.28;5046490;28;20041;-80
2022/08/19 00:44:43;;;;;;;25.35;23.00;;;;;;;16.97;99.48;101263.03;5048178;28;20029;-82
2022/08/19 00:47:09;;;;;;;25.42;23.23;;;;;;;16.98;99.74;101266.53;5047077;28;20029;-83
2022/08/19 00:49:40;;;;;;;23.77;21.67;;;;;;;16.91;99.77;101261.81;5051847;28;20082;-80
2022/08/19 00:52:13;;;;;;;23.73;21.73;;;;;;;16.95;99.91;101265.00;5050169;28;20368;-81
2022/08/19 00:54:41;;;;;;;23.35;21.25;;;;;;;16.90;99.64;101270.75;5049869;28;20391;-81
2022/08/19 00:57:12;;;;;;;24.38;22.17;;;;;;;16.86;99.92;101264.06;5048528;28;20017;-80
2022/08/19 00:59:39;;;;;;;24.48;22.27;;;;;;;16.84;99.88;101262.53;5051172;28;20025;-80
2022/08/19 01:02:05;;;;;;;24.45;22.35;;;;;;;16.85;99.84;101253.56;5049163;28;20028;-81
2022/08/19 01:04:30;;;;;;;25.40;22.98;;;;;;;16.85;99.70;101262.38;5050681;28;20037;-80
2022/08/19 01:06:57;;;;;;;24.25;22.08;;;;;;;16.82;99.92;101259.19;5051357;28;20025;-80
2022/08/19 01:09:22;;;;;;;25.20;22.85;;;;;;;16.85;99.93;101262.38;5050944;28;20031;-81
2022/08/19 01:11:49;;;;;;;25.50;23.20;;;;;;;16.79;99.99;101262.94;5050525;28;20021;-80
2022/08/19 01:14:16;;;;;;;26.05;23.55;;;;;;;16.80;100.00;101264.59;5048134;28;20117;-80
2022/08/19 01:16:43;;;;;;;27.00;24.40;;;;;;;16.83;100.00;101267.00;5049817;28;20028;-83
2022/08/19 01:19:37;;;;;;;28.20;25.50;;;;;;;16.86;100.00;101266.72;5050127;28;20108;-79
2022/08/19 01:22:24;;;;;;;28.67;26.02;;;;;;;16.80;100.00;101261.94;5049526;28;20574;-81
2022/08/19 01:24:51;;;;;;;29.05;26.25;;;;;;;16.77;100.00;101259.59;5051630;28;20032;-81
2022/08/19 01:27:17;;;;;;;29.80;26.98;;;;;;;16.76;100.00;101255.25;5050587;28;20024;-81
2022/08/19 01:29:44;;;;;;;29.17;26.48;;;;;;;16.77;100.00;101256.94;5049862;28;20025;-82
2022/08/19 01:32:12;;;;;;;29.15;26.23;;;;;;;16.75;100.00;101258.88;5051501;28;20077;-81
2022/08/19 01:34:38;;;;;;;28.60;25.83;;;;;;;16.74;100.00;101265.19;5043815;28;20091;-81
2022/08/19 01:37:11;;;;;;;28.33;25.52;;;;;;;16.68;100.00;101257.78;5058499;28;20024;-81
2022/08/19 01:39:38;;;;;;;29.05;26.00;;;;;;;16.66;100.00;101257.09;5052119;28;20036;-81
2022/08/19 01:42:04;;;;;;;29.60;26.65;;;;;;;16.66;100.00;101259.75;5050990;28;20045;-80
2022/08/19 01:44:29;;;;;;;28.33;25.65;;;;;;;16.65;100.00;101258.03;5050940;28;20063;-81
2022/08/19 01:46:55;;;;;;;28.80;25.95;;;;;;;16.61;100.00;101259.31;5050305;28;20448;-80
2022/08/19 01:49:23;;;;;;;28.38;25.77;;;;;;;16.60;100.00;101257.63;5051157;28;20020;-79
2022/08/19 01:51:50;;;;;;;28.02;25.33;;;;;;;16.58;100.00;101257.78;5051308;28;20032;-81
2022/08/19 01:54:17;;;;;;;28.85;26.00;;;;;;;16.55;100.00;101254.56;5029913;28;20018;-81
2022/08/19 01:56:43;;;;;;;27.17;24.58;;;;;;;16.56;100.00;101253.59;5049941;28;20027;-81
2022/08/19 01:59:11;;;;;;;31.55;28.42;;;;;;;16.55;100.00;101254.56;5048318;28;20475;-81
2022/08/19 02:01:37;;;;;;;31.42;27.88;;;;;;;16.53;100.00;101259.19;5048128;28;20060;-81
2022/08/19 02:04:02;;;;;;;30.60;27.60;;;;;;;16.52;100.00;101260.16;5047183;28;20441;-81
2022/08/19 02:06:28;;;;;;;31.67;28.50;;;;;;;16.55;100.00;101254.56;5049191;28;20120;-81
2022/08/19 02:08:54;;;;;;;32.63;29.42;;;;;;;16.58;100.00;101262.25;5048719;28;20025;-81
2022/08/19 02:11:26;;;;;;;32.85;29.38;;;;;;;16.50;100.00;101268.28;5050359;28;20029;-81
2022/08/19 02:13:53;;;;;;;33.28;30.02;;;;;;;16.46;100.00;101264.25;5048339;28;20033;-81
2022/08/19 02:16:19;;;;;;;34.38;30.55;;;;;;;16.53;100.00;101272.47;5050598;28;20028;-80
2022/08/19 02:18:48;;;;;;;33.72;30.35;;;;;;;16.46;100.00;101266.91;5049270;28;20098;-80
2022/08/19 02:21:18;;;;;;;35.47;31.58;;;;;;;16.45;100.00;101275.84;5047018;28;20021;-81
2022/08/19 02:23:44;;;;;;;34.53;30.63;;;;;;;16.44;100.00;101273.31;5048785;28;20419;-82
2022/08/19 02:26:10;;;;;;;34.60;30.95;;;;;;;16.44;100.00;101274.16;5049097;28;20520;-83
2022/08/19 02:28:36;;;;;;;35.20;31.60;;;;;;;16.47;100.00;101278.34;5048671;28;20029;-82
2022/08/19 02:31:02;;;;;;;38.08;33.58;;;;;;;16.44;100.00;101275.97;5049289;28;20033;-81
2022/08/19 02:33:27;;;;;;;37.42;33.58;;;;;;;16.42;100.00;101278.78;5048974;28;20379;-81
2022/08/19 02:35:53;;;;;;;36.97;33.08;;;;;;;16.45;100.00;101286.47;5049446;28;20028;-81
2022/08/19 02:38:27;;;;;;;36.58;32.78;;;;;;;16.43;100.00;101282.28;5046447;28;20095;-81
2022/08/19 02:41:05;;;;;;;38.38;32.78;;;;;;;16.51;100.00;101290.38;5048006;28;20100;-82
2022/08/19 02:43:35;;;;;;;40.15;32.70;;;;;;;16.44;100.00;101283.94;5048571;28;20487;-80
2022/08/19 02:46:01;;;;;;;38.10;34.10;;;;;;;16.45;100.00;101281.16;5049052;28;20025;-82
2022/08/19 02:48:27;;;;;;;38.45;34.15;;;;;;;16.49;100.00;101287.03;5049780;28;20542;-82
2022/08/19 02:50:59;;;;;;;37.15;32.63;;;;;;;16.47;100.00;101283.66;5050268;28;20116;-81
2022/08/19 02:53:27;;;;;;;40.30;35.93;;;;;;;16.53;100.00;101296.38;5050521;28;20040;-82
2022/08/19 02:55:53;;;;;;;40.80;36.33;;;;;;;16.53;100.00;101291.06;5048039;28;20052;-82
2022/08/19 02:58:21;;;;;;;39.10;34.85;;;;;;;16.52;100.00;101292.06;5048726;28;20474;-83
2022/08/19 03:00:54;;;;;;;40.30;35.75;;;;;;;16.51;100.00;101295.69;5047527;28;20116;-83
2022/08/19 03:03:21;;;;;;;41.97;37.40;;;;;;;16.48;100.00;101282.69;5040696;28;20383;-81
2022/08/19 03:05:46;;;;;;;39.70;35.25;;;;;;;16.52;100.00;101281.44;5049124;28;20064;-81
2022/08/19 03:08:12;;;;;;;40.28;35.83;;;;;;;16.45;100.00;101281.16;5050782;28;20660;-81
2022/08/19 03:10:47;;;;;;;38.85;34.67;;;;;;;16.46;100.00;101290.81;5055391;28;20031;-80
2022/08/19 03:13:15;;;;;;;38.80;34.70;;;;;;;16.47;100.00;101283.66;5050644;28;20478;-80
2022/08/19 03:15:42;;;;;;;40.30;36.05;;;;;;;16.44;100.00;101290.09;5047406;28;20498;-83
2022/08/19 03:18:09;;;;;;;41.35;36.90;;;;;;;16.40;100.00;101290.50;5048503;28;20086;-82
2022/08/19 03:20:39;;;;;;;40.78;36.35;;;;;;;16.39;100.00;101294.13;5049332;28;20021;-81
2022/08/19 03:23:04;;;;;;;42.05;37.47;;;;;;;16.40;100.00;101294.00;5047511;28;20106;-80
2022/08/19 03:25:29;;;;;;;43.42;38.90;;;;;;;16.34;100.00;101283.94;5048583;28;20049;-81
2022/08/19 03:27:55;;;;;;;43.03;38.42;;;;;;;16.32;100.00;101285.88;5047389;28;20032;-81
2022/08/19 03:30:20;;;;;;;46.25;41.15;;;;;;;16.36;100.00;101278.47;5049098;28;20074;-81
2022/08/19 03:32:46;;;;;;;44.83;39.95;;;;;;;16.35;100.00;101280.28;5048948;28;20045;-81
2022/08/19 03:35:11;;;;;;;43.95;39.28;;;;;;;16.33;100.00;101281.41;5048583;28;20033;-81
2022/08/19 03:37:36;;;;;;;45.80;40.78;;;;;;;16.28;100.00;101285.34;5048549;28;20025;-82
2022/08/19 03:40:03;;;;;;;44.53;40.03;;;;;;;16.30;100.00;101286.03;5048641;28;20683;-81
2022/08/19 03:42:29;;;;;;;44.42;39.67;;;;;;;16.28;100.00;101280.03;5046905;28;20049;-83
2022/08/19 03:44:54;;;;;;;48.60;43.42;;;;;;;16.27;100.00;101277.50;5047901;28;20459;-82
2022/08/19 03:47:19;;;;;;;48.10;42.65;;;;;;;16.19;100.00;101270.25;5047812;28;20048;-82
2022/08/19 03:49:45;;;;;;;45.72;41.03;;;;;;;16.21;100.00;101284.22;5052741;28;20017;-82
2022/08/19 03:52:10;;;;;;;50.17;44.72;;;;;;;16.23;100.00;101271.63;5048466;28;20090;-83
2022/08/19 03:54:37;;;;;;;47.13;42.22;;;;;;;16.25;100.00;101274.16;5056882;28;20063;-82
2022/08/19 03:57:03;;;;;;;47.80;42.60;;;;;;;16.20;100.00;101271.91;5046421;28;20053;-81
2022/08/19 03:59:32;;;;;;;49.78;44.38;;;;;;;16.23;100.00;101270.81;5046909;28;20029;-82
2022/08/19 04:02:00;;;;;;;48.70;42.88;;;;;;;16.18;100.00;101273.88;5048487;28;20060;-82
2022/08/19 04:04:26;;;;;;;46.72;42.00;;;;;;;16.14;100.00;101275.13;5048596;28;20032;-82
2022/08/19 04:06:55;;;;;;;46.90;41.83;;;;;;;16.09;100.00;101280.03;5047997;28;20442;-83
2022/08/19 04:09:21;;;;;;;47.47;42.47;;;;;;;16.08;100.00;101275.69;5049230;28;20108;-82
2022/08/19 04:11:49;;;;;;;45.60;40.90;;;;;;;16.04;100.00;101282.25;5047086;28;20116;-81
2022/08/19 04:14:18;;;;;;;47.78;42.58;;;;;;;15.99;100.00;101268.53;5049038;28;20375;-82
2022/08/19 04:16:44;;;;;;;52.85;47.25;;;;;;;16.07;100.00;101268.72;5049434;28;20390;-81
2022/08/19 04:19:11;;;;;;;48.90;43.28;;;;;;;16.08;100.00;101273.03;5045589;28;20036;-82
2022/08/19 04:21:36;;;;;;;50.67;45.20;;;;;;;16.09;100.00;101273.88;5048066;28;20109;-82
2022/08/19 04:24:03;;;;;;;52.45;46.00;;;;;;;16.05;100.00;101277.78;5051082;28;20025;-82
2022/08/19 04:26:31;;;;;;;51.45;44.72;;;;;;;16.03;100.00;101269.97;5051862;28;20600;-82
2022/08/19 04:29:03;;;;;;;52.72;46.38;;;;;;;16.02;100.00;101275.41;5059538;28;20025;-81
2022/08/19 04:31:35;;;;;;;54.95;46.75;;;;;;;15.99;100.00;101273.84;5052152;28;20117;-81
2022/08/19 04:34:01;;;;;;;55.97;46.58;;;;;;;16.02;100.00;101262.97;5049566;28;20021;-81
2022/08/19 04:36:29;;;;;;;53.80;47.90;;;;;;;16.03;100.00;101256.69;5052354;28;20028;-81
2022/08/19 04:39:02;;;;;;;57.00;47.75;;;;;;;15.99;100.00;101264.06;5051424;28;20029;-81
2022/08/19 04:44:13;;;;;;;53.20;45.13;;;;;;;15.98;100.00;101266.84;5050151;28;19948;-81
2022/08/19 04:46:38;;;;;;;57.47;46.97;;;;;;;15.92;100.00;101272.72;5051086;28;20033;-81
2022/08/19 04:49:05;;;;;;;56.35;45.42;;;;;;;15.91;100.00;101271.03;5051509;28;20552;-83
2022/08/19 04:51:32;;;;;;;55.60;46.47;;;;;;;15.92;100.00;101278.88;5050600;28;20124;-82
2022/08/19 04:53:59;;;;;;;60.15;48.53;;;;;;;15.91;100.00;101276.34;5050885;28;20032;-82
2022/08/19 04:56:26;;;;;;;54.55;45.05;;;;;;;15.90;100.00;101286.13;5056565;28;20489;-82
2022/08/19 04:59:02;;;;;;;61.92;49.08;;;;;;;15.85;100.00;101276.91;5050732;28;20059;-83
2022/08/19 05:01:29;;;;;;;56.17;47.58;;;;;;;15.87;100.00;101290.88;5051239;28;20033;-82
2022/08/19 05:03:56;;;;;;;54.88;47.38;;;;;;;15.91;100.00;101286.97;5050857;28;20025;-82
2022/08/19 05:06:25;;;;;;;58.85;48.03;;;;;;;15.88;100.00;101296.03;5049982;28;20029;-81
2022/08/19 05:08:54;;;;;;;58.53;48.67;;;;;;;15.86;100.00;101298.00;5052422;28;20036;-81
2022/08/19 05:11:25;;;;;;;63.58;51.05;;;;;;;15.87;100.00;101301.50;5057398;28;20033;-81
2022/08/19 05:13:52;;;;;;;60.08;49.45;;;;;;;15.89;100.00;101299.53;5052480;28;20097;-81
2022/08/19 05:16:19;;;;;;;64.00;50.88;;;;;;;15.86;100.00;101307.78;5051837;28;20108;-82
2022/08/19 05:24:16;;;;;;;75.78;56.33;;;;;;;15.88;100.00;101313.78;5043857;28;20036;-82
2022/08/19 05:26:46;;;;;;;80.70;57.95;;;;;;;15.87;100.00;101328.88;5051734;28;20463;-81
2022/08/19 05:29:13;;;;;;;72.25;54.63;;;;;;;15.97;100.00;101324.41;5050768;28;20504;-80
2022/08/19 05:31:39;;;;;;;77.05;57.92;;;;;;;15.93;100.00;101324.81;5049333;28;20024;-81
2022/08/19 05:34:05;;;;;;;78.13;56.33;;;;;;;15.98;100.00;101325.25;5048799;28;20021;-82
2022/08/19 05:36:35;;;;;;;81.57;59.33;;;;;;;15.92;100.00;101342.56;5050859;28;20032;-81
2022/08/19 05:39:03;;;;;;;80.82;59.72;;;;;;;15.95;100.00;101341.44;5049568;28;20083;-81
2022/08/19 05:41:30;;;;;;;84.68;60.40;;;;;;;15.94;100.00;101348.56;5050730;28;20662;-80
2022/08/19 05:43:57;;;;;;;82.80;60.33;;;;;;;15.97;100.00;101344.81;5051286;28;20080;-81
2022/08/19 05:46:23;;;;;;;82.28;60.78;;;;;;;15.95;100.00;101341.44;5057894;28;20021;-81
2022/08/19 05:48:49;;;;;;;82.32;60.88;;;;;;;16.00;100.00;101344.53;5049610;28;20137;-81
2022/08/19 05:51:15;;;;;;;85.70;62.00;;;;;;;16.04;100.00;101345.13;5049381;28;20441;-81
2022/08/19 05:53:42;;;;;;;82.93;60.45;;;;;;;16.06;100.00;101349.31;5049349;28;20032;-82
2022/08/19 05:56:10;;;;;;;87.07;60.58;;;;;;;16.07;100.00;101345.69;5049228;28;20055;-81
2022/08/19 05:58:36;;;;;;;82.57;58.95;;;;;;;16.11;100.00;101343.59;5049247;28;20048;-82
2022/08/19 06:01:05;;;;;;;83.50;60.72;;;;;;;16.13;100.00;101329.22;5046013;28;20017;-82
2022/08/19 06:03:33;;;;;;;83.03;58.58;;;;;;;16.13;100.00;101329.22;5047086;28;20095;-82
2022/08/19 06:05:59;;;;;;;84.28;59.50;;;;;;;16.20;100.00;101327.69;5048262;28;20021;-81
2022/08/19 06:08:25;;;;;;;82.90;58.20;;;;;;;16.20;100.00;101330.34;5051520;28;20398;-82
2022/08/19 06:10:55;;;;;;;77.93;56.70;;;;;;;16.19;100.00;101323.34;5050644;28;20062;-81
2022/08/19 06:13:24;;;;;;;83.75;57.65;;;;;;;16.20;100.00;101325.03;5047266;28;20390;-82
2022/08/19 06:15:49;;;;;;;76.68;56.75;;;;;;;16.24;100.00;101318.47;5050591;28;20040;-82
2022/08/19 06:18:15;;;;;;;83.47;59.25;;;;;;;16.29;100.00;101312.72;5048175;28;20028;-82
2022/08/19 06:20:41;;;;;;;77.97;57.42;;;;;;;16.30;100.00;101314.41;5051047;28;20033;-82
2022/08/19 06:23:06;;;;;;;86.80;58.67;;;;;;;16.37;100.00;101315.53;5050648;28;20035;-81
2022/08/19 06:25:32;;;;;;;78.97;56.17;;;;;;;16.45;100.00;101322.81;5053333;28;20058;-81
2022/08/19 06:27:57;;;;;;;79.90;55.55;;;;;;;16.46;100.00;101325.34;5047282;28;20025;-81
2022/08/19 06:30:23;;;;;;;80.72;55.30;;;;;;;16.48;100.00;101315.41;5049271;28;20025;-82
2022/08/19 06:32:48;;;;;;;73.95;54.72;;;;;;;16.55;100.00;101313.03;5048669;28;20036;-82
2022/08/19 06:35:14;;;;;;;76.38;54.80;;;;;;;16.63;100.00;101315.81;5047489;28;20051;-81
2022/08/19 06:37:40;;;;;;;74.60;52.42;;;;;;;16.72;100.00;101317.63;5048234;28;20029;-82
2022/08/19 06:40:08;;;;;;;73.80;52.60;;;;;;;16.77;100.00;101315.38;5047682;28;20475;-82
2022/08/19 06:42:34;;;;;;;73.90;52.63;;;;;;;16.87;100.00;101316.25;5049138;28;20041;-82
2022/08/19 06:45:03;;;;;;;73.85;52.35;;;;;;;16.95;100.00;101322.66;5049449;28;20036;-81
2022/08/19 06:47:29;;;;;;;75.40;51.55;;;;;;;16.99;100.00;101321.38;5048660;28;20121;-80
2022/08/19 06:50:03;;;;;;;70.25;49.13;;;;;;;17.05;100.00;101326.13;5051083;28;20070;-81
2022/08/19 06:52:34;;;;;;;68.43;47.90;;;;;;;17.16;100.00;101317.97;5044051;28;20470;-82
2022/08/19 06:55:00;;;;;;;66.22;49.55;;;;;;;17.21;100.00;101321.03;5046582;28;20029;-82
2022/08/19 06:57:26;;;;;;;63.97;47.30;;;;;;;17.30;100.00;101325.50;5046353;28;20107;-84
2022/08/19 06:59:56;;;;;;;65.28;46.08;;;;;;;17.41;100.00;101322.66;5048060;28;20033;-84
2022/08/19 07:02:25;;;;;;;67.10;45.50;;;;;;;17.46;100.00;101324.88;5047287;28;20036;-83
2022/08/19 07:04:57;;;;;;;61.97;44.40;;;;;;;17.62;100.00;101324.25;5045721;28;20029;-83
2022/08/19 07:07:22;;;;;;;59.67;43.15;;;;;;;17.74;100.00;101317.78;5048375;28;20028;-83
2022/08/19 07:09:49;;;;;;;62.67;44.60;;;;;;;17.91;100.00;101313.47;5054488;28;20020;-81
2022/08/19 07:12:16;;;;;;;58.78;42.35;;;;;;;18.05;100.00;101321.81;5053241;28;20466;-86
2022/08/19 07:14:42;;;;;;;57.42;41.78;;;;;;;18.23;100.00;101318.31;5050455;28;20029;-83
2022/08/19 07:17:10;;;;;;;54.40;39.40;;;;;;;18.42;100.00;101319.00;5049555;28;20028;-81
2022/08/19 07:19:38;;;;;;;57.50;39.35;;;;;;;18.57;99.04;101319.28;5048230;28;20251;-80
2022/08/19 07:22:05;;;;;;;50.13;38.55;;;;;;;18.82;98.85;101320.38;5045508;28;20390;-83
2022/08/19 07:24:31;;;;;;;50.60;36.47;;;;;;;18.88;96.90;101325.06;5049338;28;20030;-82
2022/08/19 07:27:02;;;;;;;49.20;35.75;;;;;;;19.07;95.83;101332.03;5047662;28;20059;-82
2022/08/19 07:29:30;;;;;;;51.35;36.50;;;;;;;19.21;95.13;101336.81;5047017;28;20078;-82
2022/08/19 07:31:59;;;;;;;56.90;39.10;;;;;;;19.20;94.01;101337.78;5047987;28;20056;-84
2022/08/19 07:34:26;;;;;;;53.80;39.53;;;;;;;19.21;94.01;101342.16;5049392;28;20027;-83
2022/08/19 07:36:55;;;;;;;53.67;40.42;;;;;;;19.18;93.34;101336.25;5047282;28;20079;-82
2022/08/19 07:39:24;;;;;;;49.85;37.97;;;;;;;19.29;93.58;101339.53;5048935;28;20021;-83
2022/08/19 07:41:50;;;;;;;53.05;40.42;;;;;;;19.31;93.56;101342.88;5048169;28;20076;-82
2022/08/19 07:44:16;;;;;;;55.67;41.88;;;;;;;19.30;93.71;101341.19;5046734;28;20110;-82
2022/08/19 07:46:45;;;;;;;57.30;42.00;;;;;;;19.32;92.65;101349.88;5049773;28;20029;-82
2022/08/19 07:49:17;;;;;;;55.80;43.38;;;;;;;19.27;93.69;101349.50;5047048;28;20071;-82
2022/08/19 07:51:43;;;;;;;54.08;43.78;;;;;;;19.29;93.62;101350.19;5049295;28;20025;-82
2022/08/19 07:54:11;;;;;;;56.47;44.08;;;;;;;19.31;93.10;101364.22;5047867;28;20029;-82
2022/08/19 07:56:36;;;;;;;56.33;46.72;;;;;;;19.25;93.08;101370.19;5047448;28;20025;-82
2022/08/19 07:59:02;;;;;;;61.33;47.67;;;;;;;19.19;93.13;101364.59;5046766;28;20360;-81
2022/08/19 08:01:27;;;;;;;59.15;46.45;;;;;;;19.27;93.02;101368.19;5046156;28;20040;-81
2022/08/19 08:09:26;;;;;;;63.72;51.30;;;;;;;19.13;92.71;101370.56;5048612;28;20082;-82
2022/08/19 08:11:58;;;;;;;62.55;49.60;;;;;;;19.07;93.11;101366.69;5049268;28;20083;-82
2022/08/19 08:14:36;;;;;;;58.83;49.00;;;;;;;19.00;93.46;101371.00;5047852;28;20029;-83
2022/08/19 08:17:04;;;;;;;57.58;48.83;;;;;;;18.98;94.01;101372.97;5047279;28;20095;-83
2022/08/19 08:19:30;;;;;;;61.78;48.47;;;;;;;18.99;93.93;101370.16;5046308;28;20033;-82
2022/08/19 08:21:59;;;;;;;60.05;48.55;;;;;;;18.98;94.15;101372.97;5045974;28;20032;-82
2022/08/19 08:24:27;;;;;;;55.53;47.38;;;;;;;19.04;93.72;101369.69;5047427;28;20032;-82
2022/08/19 08:26:52;;;;;;;50.10;43.53;;;;;;;19.06;92.97;101381.03;5044665;28;20025;-82
2022/08/19 08:29:19;;;;;;;50.33;41.85;;;;;;;19.13;93.58;101386.59;5050722;28;20098;-82
2022/08/19 08:31:45;;;;;;;50.15;41.55;;;;;;;19.23;92.87;101390.84;5048344;28;20067;-81
2022/08/19 08:34:11;;;;;;;55.78;43.00;;;;;;;19.28;92.08;101388.53;5048241;28;20067;-82
2022/08/19 08:36:41;;;;;;;46.88;41.03;;;;;;;19.36;91.96;101393.94;5049132;28;20033;-83
2022/08/19 08:39:08;;;;;;;46.47;38.63;;;;;;;19.60;91.57;101384.41;5048282;28;20056;-83
2022/08/19 08:41:52;;;;;;;43.67;36.20;;;;;;;19.73;90.62;101392.84;5049298;28;20190;-83
2022/08/19 08:44:22;;;;;;;45.70;35.95;;;;;;;19.83;89.35;101400.72;5048446;28;20395;-82
2022/08/19 08:46:55;;;;;;;46.15;36.40;;;;;;;19.76;88.61;101394.34;5048166;28;20360;-80
2022/08/19 08:49:30;;;;;;;;;;;;;;;19.91;90.50;101406.94;5048672;28;20021;-82
2022/08/19 08:52:22;;;;;;;45.53;35.58;;;;;;;19.86;89.81;101411.91;5048863;28;20406;-80
2022/08/19 08:54:50;;;;;;;44.65;36.42;;;;;;;19.82;89.46;101405.22;5069695;28;20200;-81
2022/08/19 08:57:23;;;;;;;49.22;38.33;;;;;;;19.91;89.54;101398.91;5050780;28;20151;-80
2022/08/19 08:59:53;;;;;;;44.35;37.65;;;;;;;19.90;88.63;101399.06;5039392;28;20021;-82
2022/08/19 09:02:19;;;;;;;45.63;36.97;;;;;;;19.99;88.88;101390.94;5047207;28;20166;-80
2022/08/19 09:04:45;;;;;;;44.83;37.85;;;;;;;20.07;87.94;101392.81;5047975;28;20522;-81
2022/08/19 09:07:22;;;;;;;48.72;38.83;;;;;;;20.11;87.90;101388.81;5047124;28;20081;-83
2022/08/19 09:10:01;;;;;;;45.53;40.20;;;;;;;20.16;87.56;101391.00;5050043;28;20064;-84
2022/08/19 09:13:08;;;;;;;49.90;40.83;;;;;;;20.23;88.37;101392.00;5055637;28;20027;-82
2022/08/19 09:15:39;;;;;;;51.40;41.40;;;;;;;20.08;86.56;101399.00;5010867;28;20043;-83
2022/08/19 09:18:06;;;;;;;51.40;40.63;;;;;;;20.16;86.82;101399.00;5043497;28;20025;-83
2022/08/19 09:20:31;;;;;;;49.60;42.58;;;;;;;20.05;86.21;101397.47;5054287;28;20087;-76
2022/08/19 09:22:58;;;;;;;52.25;42.60;;;;;;;20.01;87.28;101398.78;5051301;28;20025;-78
2022/08/19 09:25:24;;;;;;;50.28;41.17;;;;;;;20.05;87.32;101408.16;5055793;28;20029;-77
2022/08/19 09:27:55;;;;;;;54.90;39.65;;;;;;;20.06;87.51;101411.69;5053888;28;20055;-77
2022/08/19 09:30:27;;;;;;;49.90;39.40;;;;;;;19.99;87.29;101412.28;5051084;28;20028;-80
2022/08/19 09:32:54;;;;;;;51.15;39.53;;;;;;;19.89;87.28;101416.94;5051621;28;20043;-78
2022/08/19 09:35:22;;;;;;;50.55;40.70;;;;;;;19.87;87.72;101413.59;5051272;28;20056;-78
2022/08/19 09:37:49;;;;;;;51.00;40.88;;;;;;;19.94;87.49;101413.78;5046952;28;20032;-76
2022/08/19 09:40:15;;;;;;;47.08;39.58;;;;;;;20.10;87.73;101413.03;5049179;28;20035;-81
2022/08/19 09:42:43;;;;;;;52.13;40.67;;;;;;;20.12;86.93;101411.88;5050952;28;20119;-82
2022/08/19 09:45:09;;;;;;;51.55;40.35;;;;;;;20.10;85.83;101403.19;5049136;28;20025;-82
2022/08/19 09:47:37;;;;;;;48.83;38.90;;;;;;;20.13;86.19;101407.34;5042347;28;20047;-81
2022/08/19 09:50:07;;;;;;;46.97;37.70;;;;;;;20.18;85.92;101405.03;5049528;28;20017;-81
2022/08/19 09:52:34;;;;;;;43.42;37.22;;;;;;;20.18;85.84;101418.41;5059180;28;20048;-77
2022/08/19 09:54:59;;;;;;;49.13;38.55;;;;;;;20.17;86.30;101414.03;5050303;28;20352;-80
2022/08/19 09:57:24;;;;;;;44.40;37.15;;;;;;;20.27;86.81;101420.91;5050643;28;20036;-77
2022/08/19 09:59:50;;;;;;;46.92;38.97;;;;;;;20.27;85.85;101420.09;5049565;28;20029;-83
2022/08/19 10:02:15;;;;;;;44.97;38.47;;;;;;;20.31;86.30;101421.44;5049182;28;20052;-81
2022/08/19 10:07:24;;;;;;;48.53;38.85;;;;;;;20.25;85.29;101422.09;5049478;28;20035;-77
2022/08/19 10:09:50;;;;;;;44.35;37.28;;;;;;;20.25;85.11;101427.44;5051071;28;20115;-80
2022/08/19 10:12:15;;;;;;;47.25;37.80;;;;;;;20.28;85.41;101427.09;5049978;28;20022;-81
2022/08/19 10:14:40;;;;;;;48.85;37.70;;;;;;;20.35;85.82;101426.28;5050973;28;20021;-78
2022/08/19 10:17:06;;;;;;;49.47;38.13;;;;;;;20.45;84.73;101423.53;5049596;28;20137;-77
2022/08/19 10:19:35;;;;;;;47.13;37.47;;;;;;;20.55;85.70;101424.22;5049624;28;20083;-77
2022/08/19 10:22:04;;;;;;;48.28;37.90;;;;;;;20.73;83.51;101417.88;5048467;28;20398;-81
2022/08/19 10:24:30;;;;;;;48.13;34.92;;;;;;;20.73;83.45;101404.50;5049821;28;20425;-81
2022/08/19 10:26:59;;;;;;;44.95;35.65;;;;;;;20.76;83.41;101404.16;5048824;28;20025;-81
2022/08/19 10:29:24;;;;;;;41.67;34.65;;;;;;;20.74;82.72;101408.84;5048570;28;20473;-80
2022/08/19 10:31:50;;;;;;;46.88;35.35;;;;;;;20.74;82.55;101407.00;5046707;28;20104;-77
2022/08/19 10:34:15;;;;;;;45.05;35.03;;;;;;;20.82;82.36;101404.34;5050376;28;20021;-77
2022/08/19 10:36:41;;;;;;;42.03;34.35;;;;;;;20.83;81.50;101402.53;5057673;28;20039;-81
2022/08/19 10:39:11;;;;;;;43.58;35.13;;;;;;;20.91;80.97;101413.22;5057056;28;20089;-76
2022/08/19 10:41:38;;;;;;;42.13;33.83;;;;;;;20.94;79.95;101408.38;5049373;28;20037;-81
2022/08/19 10:44:07;;;;;;;41.42;32.08;;;;;;;21.11;80.62;101411.88;5049316;28;20037;-81
2022/08/19 10:46:37;;;;;;;40.65;32.88;;;;;;;21.17;79.99;101405.00;5054099;28;20032;-80
2022/08/19 10:49:04;;;;;;;37.95;32.92;;;;;;;21.22;78.13;101406.19;5053438;28;20040;-81
2022/08/19 10:54:14;;;;;;;38.15;32.28;;;;;;;21.59;78.50;101399.44;5047682;28;20029;-78
2022/08/19 10:56:52;;;;;;;40.70;30.65;;;;;;;21.79;78.67;101399.88;5042676;28;20045;-80
2022/08/19 10:59:21;;;;;;;41.33;31.92;;;;;;;21.89;77.34;101409.38;5045674;28;20013;-80
2022/08/19 11:01:47;;;;;;;40.67;32.20;;;;;;;21.82;77.34;101405.72;5042863;28;20025;-79
2022/08/19 11:04:17;;;;;;;41.67;32.65;;;;;;;21.81;78.08;101401.38;5048750;28;20451;-78
2022/08/19 11:06:46;;;;;;;39.10;32.42;;;;;;;21.73;77.15;101404.09;5043865;28;20465;-79
2022/08/19 11:09:12;;;;;;;40.72;34.63;;;;;;;21.74;78.51;101400.41;5044501;28;20560;-79
2022/08/19 11:11:41;;;;;;;47.67;39.80;;;;;;;21.74;77.57;101400.41;5054342;28;20029;-76
2022/08/19 11:14:13;;;;;;;48.15;40.75;;;;;;;21.80;76.97;101402.38;5036996;28;20029;-76
2022/08/19 11:16:40;;;;;;;49.17;39.95;;;;;;;21.98;76.43;101395.94;5049550;28;20029;-79
2022/08/19 11:19:08;;;;;;;46.35;40.58;;;;;;;21.97;75.34;101399.63;5038462;28;20100;-79
2022/08/19 11:21:42;;;;;;;41.85;37.40;;;;;;;22.13;75.96;101394.25;5046631;28;20037;-78
2022/08/19 11:24:14;;;;;;;44.00;36.65;;;;;;;22.37;74.52;101404.81;5044869;28;20025;-80
2022/08/19 11:26:42;;;;;;;39.95;33.95;;;;;;;22.38;72.68;101398.44;5047728;28;20021;-80